Time;durP1;ratioP1;P1;durP2;ratioP2;P2;SDS_P1;SDS_P2;PMS_P1;PMS_P2;Temp;Humidity;BMP_temperature;BMP_pressure;BME280_temperature;BME280_humidity;BME280_pressure;Samples;Min_cycle;Max_cycle;Signal;HPM_P1;HPM_P2
2022/05/14 00:00:31;;;;;;;;;;;14.10;99.90;;;;;;5091973;27;38674;-57
2022/05/14 00:02:58;;;;;;;;;;;14.10;99.90;;;;;;5092424;27;37639;-58
2022/05/14 00:05:27;;;;;;;;;;;14.00;99.90;;;;;;5092549;27;36271;-58
2022/05/14 00:07:54;;;;;;;;;;;14.10;99.90;;;;;;5091879;27;37892;-58
2022/05/14 00:10:22;;;;;;;;;;;14.10;99.90;;;;;;5091016;27;38126;-57
2022/05/14 00:13:06;;;;;;;;;;;14.10;99.90;;;;;;5092866;27;39616;-58
2022/05/14 00:15:34;;;;;;;;;;;14.10;99.90;;;;;;5093124;27;35251;-58
2022/05/14 00:18:02;;;;;;;;;;;14.10;99.90;;;;;;5092686;27;37583;-58
2022/05/14 00:20:31;;;;;;;;;;;14.00;99.90;;;;;;5092810;27;38838;-58
2022/05/14 00:22:58;;;;;;;;;;;14.00;99.90;;;;;;5093471;27;37309;-57
2022/05/14 00:25:26;;;;;;;;;;;14.00;99.90;;;;;;5091375;27;36518;-58
2022/05/14 00:27:53;;;;;;;;;;;13.90;99.90;;;;;;5096423;27;36416;-57
2022/05/14 00:30:23;;;;;;;;;;;13.90;99.90;;;;;;5095023;27;37825;-58
2022/05/14 00:32:50;;;;;;;;;;;13.90;99.90;;;;;;5095919;27;34512;-58
2022/05/14 00:35:17;;;;;;;;;;;13.90;99.90;;;;;;5096776;27;36595;-58
2022/05/14 00:37:46;;;;;;;;;;;13.80;99.90;;;;;;5096866;27;36496;-58
2022/05/14 00:40:14;;;;;;;;;;;13.80;99.90;;;;;;5094261;27;37702;-58
2022/05/14 00:42:42;;;;;;;;;;;13.80;99.90;;;;;;5094457;27;37008;-58
2022/05/14 00:45:10;;;;;;;;;;;13.80;99.90;;;;;;5096324;27;34948;-58
2022/05/14 00:47:39;;;;;;;;;;;13.80;99.90;;;;;;5095391;27;36302;-58
2022/05/14 00:50:09;;;;;;;;;;;13.80;99.90;;;;;;5093925;27;37766;-58
2022/05/14 00:52:37;;;;;;;;;;;13.80;99.90;;;;;;5093368;27;37790;-58
2022/05/14 00:55:06;;;;;;;;;;;13.80;99.90;;;;;;5093414;27;36097;-58
2022/05/14 00:57:35;;;;;;;;;;;13.80;99.90;;;;;;5086541;27;38273;-57
2022/05/14 01:00:05;;;;;;;;;;;13.80;99.90;;;;;;5091936;27;38240;-58
2022/05/14 01:02:32;;;;;;;;;;;13.80;99.90;;;;;;5096339;27;36098;-58
2022/05/14 01:05:00;;;;;;;;;;;13.80;99.90;;;;;;5096625;27;37096;-58
2022/05/14 01:07:27;;;;;;;;;;;13.80;99.90;;;;;;5096471;27;38281;-58
2022/05/14 01:09:57;;;;;;;;;;;13.90;99.90;;;;;;5095546;27;36824;-58
2022/05/14 01:12:25;;;;;;;;;;;13.90;99.90;;;;;;5095665;27;37240;-58
2022/05/14 01:14:53;;;;;;;;;;;13.90;99.90;;;;;;5094505;27;37207;-58
2022/05/14 01:17:21;;;;;;;;;;;13.90;99.90;;;;;;5095133;27;36495;-58
2022/05/14 01:19:48;;;;;;;;;;;13.90;99.90;;;;;;5095101;27;36712;-58
2022/05/14 01:22:24;;;;;;;;;;;13.90;99.90;;;;;;5095447;27;37274;-58
2022/05/14 01:27:40;;;;;;;;;;;13.80;99.90;;;;;;5095841;27;39939;-58
2022/05/14 01:30:08;;;;;;;;;;;13.80;99.90;;;;;;5087069;27;38129;-58
2022/05/14 01:32:35;;;;;;;;;;;13.80;99.90;;;;;;5094447;27;36868;-58
2022/05/14 01:35:02;;;;;;;;;;;13.80;99.90;;;;;;5095586;27;37243;-58
2022/05/14 01:37:29;;;;;;;;;;;13.80;99.90;;;;;;5094828;27;38535;-58
2022/05/14 01:39:56;;;;;;;;;;;13.80;99.90;;;;;;5094943;27;37859;-57
2022/05/14 01:42:23;;;;;;;;;;;13.80;99.90;;;;;;5094777;27;36006;-58
2022/05/14 01:44:51;;;;;;;;;;;13.80;99.90;;;;;;5092231;27;37042;-58
2022/05/14 01:47:18;;;;;;;;;;;13.70;99.90;;;;;;5092960;27;38983;-58
2022/05/14 01:49:46;;;;;;;;;;;13.70;99.90;;;;;;5093093;27;36821;-57
2022/05/14 01:52:13;;;;;;;;;;;13.70;99.90;;;;;;5095569;27;37370;-58
2022/05/14 01:54:40;;;;;;;;;;;13.70;99.90;;;;;;5094088;27;36298;-58
2022/05/14 01:57:07;;;;;;;;;;;13.60;99.90;;;;;;5094358;27;37898;-58
2022/05/14 01:59:34;;;;;;;;;;;13.60;99.90;;;;;;5093707;27;38245;-58
2022/05/14 02:02:02;;;;;;;;;;;13.60;99.90;;;;;;5094256;27;37609;-58
2022/05/14 02:04:29;;;;;;;;;;;13.60;99.90;;;;;;5095511;27;36246;-58
2022/05/14 02:06:56;;;;;;;;;;;13.60;99.90;;;;;;5094557;27;39165;-58
2022/05/14 02:09:23;;;;;;;;;;;13.50;99.90;;;;;;5093945;27;36584;-58
2022/05/14 02:11:51;;;;;;;;;;;13.50;99.90;;;;;;5095115;27;37011;-58
2022/05/14 02:14:18;;;;;;;;;;;13.50;99.90;;;;;;5094933;27;35211;-58
2022/05/14 02:16:45;;;;;;;;;;;13.40;99.90;;;;;;5093311;27;37984;-57
2022/05/14 02:19:13;;;;;;;;;;;13.40;99.90;;;;;;5095162;27;36790;-57
2022/05/14 02:21:40;;;;;;;;;;;13.40;99.90;;;;;;5091066;27;36977;-58
2022/05/14 02:24:07;;;;;;;;;;;13.30;99.90;;;;;;5094346;27;36448;-58
2022/05/14 02:26:34;;;;;;;;;;;13.30;99.90;;;;;;5093277;27;37539;-58
2022/05/14 02:29:02;;;;;;;;;;;13.30;99.90;;;;;;5092102;27;38162;-58
2022/05/14 02:31:29;;;;;;;;;;;13.30;99.90;;;;;;5094184;27;37061;-58
2022/05/14 02:33:56;;;;;;;;;;;13.20;99.90;;;;;;5093046;27;35115;-58
2022/05/14 02:36:25;;;;;;;;;;;13.20;99.90;;;;;;5094639;27;38369;-57
2022/05/14 02:38:52;;;;;;;;;;;13.20;99.90;;;;;;5093292;27;39031;-58
2022/05/14 02:41:19;;;;;;;;;;;13.10;99.90;;;;;;5093386;27;36177;-58
2022/05/14 02:43:46;;;;;;;;;;;13.10;99.90;;;;;;5094035;27;37566;-58
2022/05/14 02:46:13;;;;;;;;;;;13.10;99.90;;;;;;5092674;27;36594;-58
2022/05/14 02:48:40;;;;;;;;;;;13.00;99.90;;;;;;5089088;27;38938;-58
2022/05/14 02:51:07;;;;;;;;;;;13.00;99.90;;;;;;5084931;27;37842;-58
2022/05/14 02:53:35;;;;;;;;;;;13.00;99.90;;;;;;5090897;27;36492;-58
2022/05/14 02:56:03;;;;;;;;;;;12.90;99.90;;;;;;5094821;27;37754;-57
2022/05/14 03:01:14;;;;;;;;;;;12.90;99.90;;;;;;5093081;27;37981;-58
2022/05/14 03:03:42;;;;;;;;;;;12.90;99.90;;;;;;5093793;27;36991;-58
2022/05/14 03:06:09;;;;;;;;;;;12.80;99.90;;;;;;5094055;27;37487;-58
2022/05/14 03:08:37;;;;;;;;;;;12.80;99.90;;;;;;5094237;27;38290;-58
2022/05/14 03:11:04;;;;;;;;;;;12.80;99.90;;;;;;5092763;27;37458;-57
2022/05/14 03:13:31;;;;;;;;;;;12.80;99.90;;;;;;5093584;27;36562;-58
2022/05/14 03:15:58;;;;;;;;;;;12.80;99.90;;;;;;5093888;27;38007;-58
2022/05/14 03:18:26;;;;;;;;;;;12.70;99.90;;;;;;5092635;27;38530;-58
2022/05/14 03:20:53;;;;;;;;;;;12.70;99.90;;;;;;5092521;27;36975;-58
2022/05/14 03:23:20;;;;;;;;;;;12.70;99.90;;;;;;5091198;27;35236;-58
2022/05/14 03:25:48;;;;;;;;;;;12.70;99.90;;;;;;5093547;27;38706;-57
2022/05/14 03:28:16;;;;;;;;;;;12.60;99.90;;;;;;5092764;27;37644;-58
2022/05/14 03:30:43;;;;;;;;;;;12.60;99.90;;;;;;5093782;27;37745;-58
2022/05/14 03:33:10;;;;;;;;;;;12.60;99.90;;;;;;5093180;27;37653;-58
2022/05/14 03:35:37;;;;;;;;;;;12.60;99.90;;;;;;5094113;27;37433;-58
2022/05/14 03:38:04;;;;;;;;;;;12.60;99.90;;;;;;5092497;27;39427;-58
2022/05/14 03:40:31;;;;;;;;;;;12.60;99.90;;;;;;5092965;27;37185;-58
2022/05/14 03:43:00;;;;;;;;;;;12.60;99.90;;;;;;5094421;27;35918;-58
2022/05/14 03:45:27;;;;;;;;;;;12.60;99.90;;;;;;5092748;27;37667;-58
2022/05/14 03:47:54;;;;;;;;;;;12.60;99.90;;;;;;5093165;27;40081;-58
2022/05/14 03:50:21;;;;;;;;;;;12.60;99.90;;;;;;5088684;27;37143;-57
2022/05/14 03:52:48;;;;;;;;;;;12.60;99.90;;;;;;5091640;27;37525;-58
2022/05/14 03:55:15;;;;;;;;;;;12.60;99.90;;;;;;5093217;27;37655;-58
2022/05/14 03:57:42;;;;;;;;;;;12.60;99.90;;;;;;5092190;27;38569;-58
2022/05/14 04:00:11;;;;;;;;;;;12.60;99.90;;;;;;5093105;27;36027;-57
2022/05/14 04:02:38;;;;;;;;;;;12.50;99.90;;;;;;5092493;27;36233;-58
2022/05/14 04:05:06;;;;;;;;;;;12.60;99.90;;;;;;5092093;27;38127;-58
2022/05/14 04:07:33;;;;;;;;;;;12.70;99.90;;;;;;5093565;27;37680;-58
2022/05/14 04:10:00;;;;;;;;;;;12.60;99.90;;;;;;5092115;27;36011;-58
2022/05/14 04:12:27;;;;;;;;;;;12.60;99.90;;;;;;5092554;27;37487;-58
2022/05/14 04:14:55;;;;;;;;;;;12.60;99.90;;;;;;5093989;27;36426;-57
2022/05/14 04:17:23;;;;;;;;;;;12.60;99.90;;;;;;5086070;27;38225;-57
2022/05/14 04:19:50;;;;;;;;;;;12.60;99.90;;;;;;5088696;27;38019;-57
2022/05/14 04:22:17;;;;;;;;;;;12.70;99.90;;;;;;5091300;27;36317;-58
2022/05/14 04:24:44;;;;;;;;;;;12.70;99.90;;;;;;5090112;27;40606;-58
2022/05/14 04:27:11;;;;;;;;;;;12.80;99.90;;;;;;5093040;27;37807;-57
2022/05/14 04:29:38;;;;;;;;;;;12.80;99.90;;;;;;5090928;27;40196;-58
2022/05/14 04:32:06;;;;;;;;;;;12.80;99.90;;;;;;5092946;27;37542;-58
2022/05/14 04:34:34;;;;;;;;;;;12.90;99.90;;;;;;5091014;27;36353;-58
2022/05/14 04:37:01;;;;;;;;;;;13.00;99.90;;;;;;5092817;27;37853;-57
2022/05/14 04:39:32;;;;;;;;;;;13.00;99.90;;;;;;5091963;27;39998;-58
2022/05/14 04:42:00;;;;;;;;;;;13.10;99.90;;;;;;5091623;27;37764;-57
2022/05/14 04:44:28;;;;;;;;;;;13.10;99.90;;;;;;5092359;27;36475;-58
2022/05/14 04:46:55;;;;;;;;;;;13.10;99.90;;;;;;5092070;27;37247;-57
2022/05/14 04:49:22;;;;;;;;;;;13.20;99.90;;;;;;5090475;27;38604;-58
2022/05/14 04:51:51;;;;;;;;;;;13.30;99.90;;;;;;5093118;27;35104;-58
2022/05/14 04:54:18;;;;;;;;;;;13.40;99.90;;;;;;5092501;27;38601;-58
2022/05/14 04:56:45;;;;;;;;;;;13.60;99.90;;;;;;5092071;27;39031;-58
2022/05/14 04:59:12;;;;;;;;;;;13.70;99.90;;;;;;5091933;27;35947;-58
2022/05/14 05:03:16;;;;;;;;;;;13.80;99.90;;;;;;5092279;27;37837;-58
2022/05/14 05:04:27;;;;;;;;;;;14.00;99.90;;;;;;5090974;27;37406;-58
2022/05/14 05:06:55;;;;;;;;;;;14.10;99.90;;;;;;5091243;27;38229;-58
2022/05/14 05:09:22;;;;;;;;;;;14.20;99.90;;;;;;5091881;27;38312;-58
2022/05/14 05:11:50;;;;;;;;;;;14.40;99.90;;;;;;5092268;27;35080;-58
2022/05/14 05:14:17;;;;;;;;;;;14.50;99.90;;;;;;5093348;27;39729;-58
2022/05/14 05:16:44;;;;;;;;;;;14.60;99.90;;;;;;5094669;27;37682;-58
2022/05/14 05:19:11;;;;;;;;;;;14.80;99.90;;;;;;5095550;27;38244;-58
2022/05/14 05:21:39;;;;;;;;;;;14.90;99.90;;;;;;5095048;27;37239;-58
2022/05/14 05:24:08;;;;;;;;;;;15.00;99.90;;;;;;5094248;27;40025;-58
2022/05/14 05:26:36;;;;;;;;;;;14.90;99.90;;;;;;5095043;27;37746;-58
2022/05/14 05:29:03;;;;;;;;;;;14.80;99.90;;;;;;5094969;27;38007;-58
2022/05/14 05:31:31;;;;;;;;;;;14.70;99.90;;;;;;5094545;27;36181;-57
2022/05/14 05:33:58;;;;;;;;;;;14.60;99.90;;;;;;5092519;27;37754;-58
2022/05/14 05:36:25;;;;;;;;;;;14.70;99.90;;;;;;5093360;27;37398;-58
2022/05/14 05:38:52;;;;;;;;;;;14.80;99.90;;;;;;5094181;27;38076;-58
2022/05/14 05:41:21;;;;;;;;;;;15.00;99.90;;;;;;5094545;27;35034;-58
2022/05/14 05:43:49;;;;;;;;;;;15.20;99.90;;;;;;5093991;27;38570;-58
2022/05/14 05:46:16;;;;;;;;;;;15.40;99.90;;;;;;5091189;27;38433;-58
2022/05/14 05:48:43;;;;;;;;;;;15.60;99.90;;;;;;5095525;27;37294;-58
2022/05/14 05:51:11;;;;;;;;;;;15.80;99.90;;;;;;5095286;27;36908;-58
2022/05/14 05:59:08;;;;;;;;;;;16.40;99.90;;;;;;5094357;27;40616;-58
2022/05/14 06:01:35;;;;;;;;;;;16.60;99.90;;;;;;5094239;27;37029;-59
2022/05/14 06:04:02;;;;;;;;;;;16.70;99.60;;;;;;5093737;27;40187;-58
2022/05/14 06:06:29;;;;;;;;;;;16.80;99.10;;;;;;5095082;27;38639;-58
2022/05/14 06:08:56;;;;;;;;;;;16.80;98.80;;;;;;5094298;27;37021;-58
2022/05/14 06:11:25;;;;;;;;;;;16.60;97.90;;;;;;5095201;27;36468;-59
2022/05/14 06:13:52;;;;;;;;;;;16.50;97.90;;;;;;5094681;27;39751;-58
2022/05/14 06:16:19;;;;;;;;;;;16.30;98.30;;;;;;5095246;27;37264;-58
2022/05/14 06:18:46;;;;;;;;;;;16.30;98.60;;;;;;5093496;27;37012;-58
2022/05/14 06:21:14;;;;;;;;;;;16.30;98.80;;;;;;5093894;27;35033;-58
2022/05/14 06:23:41;;;;;;;;;;;16.50;98.70;;;;;;5094700;27;37153;-58
2022/05/14 06:26:08;;;;;;;;;;;16.60;98.60;;;;;;5095818;27;37702;-58
2022/05/14 06:28:36;;;;;;;;;;;16.80;98.10;;;;;;5093971;27;38330;-58
2022/05/14 06:31:04;;;;;;;;;;;16.90;97.50;;;;;;5095809;27;35778;-58
2022/05/14 06:33:32;;;;;;;;;;;17.00;97.10;;;;;;5092941;27;39142;-58
2022/05/14 06:35:59;;;;;;;;;;;17.00;97.20;;;;;;5093007;27;38082;-58
2022/05/14 06:38:27;;;;;;;;;;;17.10;97.20;;;;;;5093883;27;37222;-58
2022/05/14 06:40:54;;;;;;;;;;;17.10;96.90;;;;;;5091597;27;36003;-58
2022/05/14 06:43:21;;;;;;;;;;;17.10;96.80;;;;;;5093874;27;39268;-58
2022/05/14 06:45:50;;;;;;;;;;;17.20;96.60;;;;;;5092119;27;37524;-58
2022/05/14 06:48:17;;;;;;;;;;;17.20;96.20;;;;;;5092088;27;36788;-57
2022/05/14 06:50:45;;;;;;;;;;;17.20;95.70;;;;;;5092671;27;36542;-57
2022/05/14 06:53:13;;;;;;;;;;;17.30;95.50;;;;;;5092535;27;37830;-58
2022/05/14 06:55:41;;;;;;;;;;;17.30;95.10;;;;;;5091763;27;36651;-58
2022/05/14 06:58:10;;;;;;;;;;;17.40;94.80;;;;;;5094354;27;38017;-58
2022/05/14 07:00:38;;;;;;;;;;;17.40;95.00;;;;;;5093287;27;38406;-58
2022/05/14 07:08:37;;;;;;;;;;;17.50;95.10;;;;;;5093932;27;39361;-58
2022/05/14 07:11:05;;;;;;;;;;;17.50;94.60;;;;;;5093387;27;35054;-58
2022/05/14 07:13:32;;;;;;;;;;;17.50;94.20;;;;;;5090298;27;40673;-58
2022/05/14 07:15:59;;;;;;;;;;;17.50;93.20;;;;;;5092517;27;37908;-58
2022/05/14 07:18:27;;;;;;;;;;;17.40;92.80;;;;;;5090037;27;37324;-58
2022/05/14 07:20:55;;;;;;;;;;;17.40;93.50;;;;;;5092638;27;36164;-58
2022/05/14 07:23:22;;;;;;;;;;;17.30;94.00;;;;;;5091875;27;37081;-57
2022/05/14 07:25:49;;;;;;;;;;;17.40;93.60;;;;;;5092016;27;38058;-58
2022/05/14 07:28:16;;;;;;;;;;;17.40;93.90;;;;;;5093436;27;37388;-58
2022/05/14 07:30:43;;;;;;;;;;;17.40;94.50;;;;;;5093312;27;35095;-57
2022/05/14 07:33:10;;;;;;;;;;;17.50;93.70;;;;;;5092075;27;38037;-58
2022/05/14 07:35:40;;;;;;;;;;;17.60;93.30;;;;;;5092528;27;38870;-59
2022/05/14 07:38:07;;;;;;;;;;;17.70;93.30;;;;;;5091628;27;38854;-58
2022/05/14 07:40:37;;;;;;;;;;;17.80;93.00;;;;;;5092082;27;35236;-58
2022/05/14 07:43:06;;;;;;;;;;;17.90;93.30;;;;;;5093808;27;39366;-58
2022/05/14 07:45:35;;;;;;;;;;;18.00;93.20;;;;;;5091283;27;36843;-57
2022/05/14 07:48:03;;;;;;;;;;;18.10;93.40;;;;;;5092029;27;37779;-57
2022/05/14 07:50:31;;;;;;;;;;;18.20;93.40;;;;;;5093185;27;37387;-58
2022/05/14 07:53:00;;;;;;;;;;;18.30;92.40;;;;;;5093389;27;40225;-57
2022/05/14 07:55:30;;;;;;;;;;;18.30;92.50;;;;;;5090456;27;41382;-58
2022/05/14 07:57:57;;;;;;;;;;;18.30;92.30;;;;;;5079816;27;35960;-57
2022/05/14 08:00:24;;;;;;;;;;;18.40;91.50;;;;;;5091866;27;36677;-57
2022/05/14 08:02:52;;;;;;;;;;;18.40;90.60;;;;;;5092119;27;37783;-57
2022/05/14 08:05:20;;;;;;;;;;;18.50;90.30;;;;;;5091304;27;37928;-58
2022/05/14 08:07:48;;;;;;;;;;;18.60;90.20;;;;;;5094791;27;35973;-57
2022/05/14 08:10:17;;;;;;;;;;;18.60;89.40;;;;;;5092161;27;36441;-58
2022/05/14 08:12:45;;;;;;;;;;;18.60;89.30;;;;;;5088583;27;36733;-58
2022/05/14 08:15:13;;;;;;;;;;;18.70;88.80;;;;;;5091586;27;37370;-58
2022/05/14 08:17:40;;;;;;;;;;;18.80;87.90;;;;;;5092213;27;37345;-57
2022/05/14 08:20:08;;;;;;;;;;;18.90;86.90;;;;;;5092314;27;36584;-57
2022/05/14 08:25:21;;;;;;;;;;;19.00;86.70;;;;;;5091525;27;40154;-57
2022/05/14 08:27:48;;;;;;;;;;;19.10;85.30;;;;;;5093275;27;39689;-57
2022/05/14 08:30:17;;;;;;;;;;;19.20;84.00;;;;;;5092061;27;34702;-57
2022/05/14 08:32:44;;;;;;;;;;;19.20;83.00;;;;;;5092537;27;41158;-57
2022/05/14 08:35:11;;;;;;;;;;;19.30;84.30;;;;;;5092002;27;39014;-57
2022/05/14 08:37:39;;;;;;;;;;;19.20;82.60;;;;;;5093147;27;36886;-57
2022/05/14 08:40:07;;;;;;;;;;;19.10;85.00;;;;;;5092618;27;36397;-57
2022/05/14 08:42:35;;;;;;;;;;;19.00;87.80;;;;;;5090794;27;39027;-57
2022/05/14 08:45:03;;;;;;;;;;;19.10;89.70;;;;;;5092063;27;40057;-57
2022/05/14 08:47:32;;;;;;;;;;;19.20;90.20;;;;;;5093335;27;36972;-58
2022/05/14 08:49:59;;;;;;;;;;;19.30;88.70;;;;;;5095109;27;36466;-58
2022/05/14 08:52:28;;;;;;;;;;;19.40;84.80;;;;;;5094652;27;36388;-58
2022/05/14 08:54:58;;;;;;;;;;;19.30;83.90;;;;;;5096022;27;38281;-58
2022/05/14 08:57:30;;;;;;;;;;;19.10;83.90;;;;;;5095361;27;37259;-58
2022/05/14 08:59:59;;;;;;;;;;;18.90;85.80;;;;;;5096411;27;36139;-57
2022/05/14 09:02:29;;;;;;;;;;;18.80;87.70;;;;;;5095455;27;36389;-57
2022/05/14 09:04:57;;;;;;;;;;;18.90;88.00;;;;;;5095719;27;38007;-58
2022/05/14 09:07:24;;;;;;;;;;;19.10;86.50;;;;;;5095241;27;36174;-58
2022/05/14 09:09:53;;;;;;;;;;;19.40;88.10;;;;;;5094410;27;36985;-58
2022/05/14 09:12:22;;;;;;;;;;;19.70;86.10;;;;;;5090454;27;37433;-58
2022/05/14 09:14:53;;;;;;;;;;;19.60;81.40;;;;;;5093549;27;36688;-57
2022/05/14 09:17:22;;;;;;;;;;;19.60;82.20;;;;;;5093700;27;36809;-58
2022/05/14 09:19:51;;;;;;;;;;;19.80;83.60;;;;;;5093047;27;36321;-58
2022/05/14 09:22:24;;;;;;;;;;;19.90;84.20;;;;;;5092801;27;37694;-57
2022/05/14 09:24:53;;;;;;;;;;;20.00;79.90;;;;;;5094448;27;38857;-58
2022/05/14 09:27:23;;;;;;;;;;;19.90;77.10;;;;;;5094605;27;35961;-57
2022/05/14 09:29:52;;;;;;;;;;;19.70;78.10;;;;;;5095372;27;36348;-58
2022/05/14 09:32:30;;;;;;;;;;;19.60;81.30;;;;;;5096292;27;37603;-61
2022/05/14 09:35:04;;;;;;;;;;;19.80;82.60;;;;;;5095150;27;38442;-58
2022/05/14 09:37:31;;;;;;;;;;;20.10;82.20;;;;;;5094078;27;37393;-57
2022/05/14 09:39:59;;;;;;;;;;;20.40;79.50;;;;;;5095447;27;35062;-58
2022/05/14 09:42:30;;;;;;;;;;;20.40;78.50;;;;;;5094861;27;38924;-57
2022/05/14 09:44:58;;;;;;;;;;;20.20;75.70;;;;;;5093701;27;37411;-58
2022/05/14 09:47:26;;;;;;;;;;;20.10;75.50;;;;;;5091960;27;37283;-57
2022/05/14 09:49:59;;;;;;;;;;;19.90;79.20;;;;;;5092793;27;37290;-58
2022/05/14 09:52:29;;;;;;;;;;;20.00;79.90;;;;;;5095540;27;39995;-58
2022/05/14 09:54:57;;;;;;;;;;;20.10;76.80;;;;;;5093670;27;37617;-58
2022/05/14 09:57:33;;;;;;;;;;;20.00;75.70;;;;;;5095061;27;37295;-58
2022/05/14 10:00:08;;;;;;;;;;;19.80;77.20;;;;;;5094875;27;36701;-58
2022/05/14 10:02:45;;;;;;;;;;;19.80;78.30;;;;;;5094551;27;36568;-58
2022/05/14 10:05:17;;;;;;;;;;;19.60;78.40;;;;;;5094894;27;39771;-58
2022/05/14 10:07:47;;;;;;;;;;;19.50;77.00;;;;;;5093371;27;38596;-58
2022/05/14 10:10:20;;;;;;;;;;;19.60;80.30;;;;;;5093544;27;37142;-58
2022/05/14 10:12:52;;;;;;;;;;;19.80;83.40;;;;;;5094405;27;37210;-57
2022/05/14 10:15:27;;;;;;;;;;;20.10;79.60;;;;;;5094123;27;37751;-57
2022/05/14 10:18:00;;;;;;;;;;;20.30;78.70;;;;;;5094092;27;38480;-58
2022/05/14 10:20:41;;;;;;;;;;;20.30;76.00;;;;;;5093289;27;35001;-58
2022/05/14 10:29:03;;;;;;;;;;;20.20;79.80;;;;;;5095144;27;39370;-58
2022/05/14 10:31:34;;;;;;;;;;;20.50;74.80;;;;;;5094289;27;36280;-58
2022/05/14 10:34:03;;;;;;;;;;;20.60;75.10;;;;;;5090164;27;37738;-58
2022/05/14 10:36:34;;;;;;;;;;;20.70;71.80;;;;;;5093569;27;38214;-58
2022/05/14 10:39:03;;;;;;;;;;;20.70;73.40;;;;;;5093839;27;37201;-58
2022/05/14 10:41:33;;;;;;;;;;;20.80;73.60;;;;;;5092562;27;38267;-58
2022/05/14 10:44:02;;;;;;;;;;;21.00;74.40;;;;;;5094316;27;38632;-58
2022/05/14 10:46:30;;;;;;;;;;;21.20;72.00;;;;;;5093751;27;39496;-57
2022/05/14 10:48:59;;;;;;;;;;;21.50;74.10;;;;;;5092926;27;36453;-58
2022/05/14 10:51:28;;;;;;;;;;;21.40;68.50;;;;;;5093891;27;36754;-57
2022/05/14 10:53:57;;;;;;;;;;;21.50;70.40;;;;;;5094080;27;36605;-58
2022/05/14 10:56:26;;;;;;;;;;;21.30;69.00;;;;;;5094176;27;37950;-57
2022/05/14 10:58:57;;;;;;;;;;;21.20;69.30;;;;;;5094361;27;37907;-57
2022/05/14 11:01:29;;;;;;;;;;;20.90;68.60;;;;;;5094479;27;35609;-58
2022/05/14 11:03:57;;;;;;;;;;;20.70;69.20;;;;;;5089981;27;37900;-58
2022/05/14 11:06:29;;;;;;;;;;;20.50;69.70;;;;;;5091443;27;37787;-58
2022/05/14 11:08:58;;;;;;;;;;;20.20;71.80;;;;;;5093697;27;37033;-58
2022/05/14 11:11:26;;;;;;;;;;;20.00;70.70;;;;;;5090725;27;36448;-57
2022/05/14 11:13:57;;;;;;;;;;;19.90;70.10;;;;;;5092633;27;38422;-58
2022/05/14 11:16:35;;;;;;;;;;;19.70;72.20;;;;;;5091789;27;38745;-58
2022/05/14 11:19:04;;;;;;;;;;;19.50;72.40;;;;;;5091183;27;37753;-58
2022/05/14 11:21:36;;;;;;;;;;;19.40;75.50;;;;;;5091085;27;36630;-58
2022/05/14 11:24:04;;;;;;;;;;;19.60;75.70;;;;;;5089985;27;37870;-58
2022/05/14 11:26:32;;;;;;;;;;;19.90;75.60;;;;;;5086798;27;39668;-58
2022/05/14 11:29:00;;;;;;;;;;;20.20;74.00;;;;;;5090272;27;35832;-58
2022/05/14 11:31:29;;;;;;;;;;;20.40;71.40;;;;;;5087173;27;37740;-57
2022/05/14 11:33:58;;;;;;;;;;;20.60;71.60;;;;;;5084599;27;36353;-57
2022/05/14 11:36:26;;;;;;;;;;;20.90;72.00;;;;;;5090820;27;38849;-57
2022/05/14 11:39:07;;;;;;;;;;;21.10;72.40;;;;;;5092761;27;38703;-58
2022/05/14 11:41:35;;;;;;;;;;;21.30;68.40;;;;;;5091924;27;36454;-58
2022/05/14 11:44:04;;;;;;;;;;;21.40;67.50;;;;;;5091593;27;38359;-58
2022/05/14 11:46:33;;;;;;;;;;;21.50;65.00;;;;;;5091494;27;39090;-58
2022/05/14 11:49:03;;;;;;;;;;;21.50;65.30;;;;;;5091665;27;38351;-57
2022/05/14 11:51:36;;;;;;;;;;;21.20;64.00;;;;;;5092651;27;37214;-58
2022/05/14 11:54:05;;;;;;;;;;;21.00;64.70;;;;;;5091984;27;38430;-57
2022/05/14 11:56:36;;;;;;;;;;;20.80;65.70;;;;;;5091650;27;37398;-58
2022/05/14 11:59:06;;;;;;;;;;;20.60;67.90;;;;;;5091967;27;37587;-57
2022/05/14 12:01:34;;;;;;;;;;;20.50;67.10;;;;;;5092932;27;36590;-57
2022/05/14 12:04:03;;;;;;;;;;;20.30;69.10;;;;;;5089920;27;38601;-57
2022/05/14 12:06:45;;;;;;;;;;;20.30;71.00;;;;;;5091353;27;36552;-57
2022/05/14 12:09:19;;;;;;;;;;;20.20;69.50;;;;;;5090782;27;37901;-57
2022/05/14 12:11:51;;;;;;;;;;;20.00;69.20;;;;;;5091626;27;37013;-57
2022/05/14 12:14:19;;;;;;;;;;;19.90;70.30;;;;;;5090148;27;37323;-57
2022/05/14 12:16:49;;;;;;;;;;;19.80;70.10;;;;;;5092010;27;39141;-57
2022/05/14 12:19:19;;;;;;;;;;;19.70;70.40;;;;;;5089698;27;36069;-57
2022/05/14 12:21:51;;;;;;;;;;;19.60;71.80;;;;;;5091733;27;37000;-57
2022/05/14 12:24:19;;;;;;;;;;;19.60;72.90;;;;;;5098592;27;38830;-57
2022/05/14 12:26:48;;;;;;;;;;;19.60;74.70;;;;;;5098497;27;38793;-58
2022/05/14 12:29:16;;;;;;;;;;;19.60;74.40;;;;;;5098929;27;39105;-58
2022/05/14 12:34:36;;;;;;;;;;;19.80;73.90;;;;;;5097396;27;39571;-57
2022/05/14 12:37:04;;;;;;;;;;;19.90;74.40;;;;;;5100016;27;36539;-57
2022/05/14 12:39:33;;;;;;;;;;;20.20;75.80;;;;;;5097812;27;38767;-58
2022/05/14 12:42:04;;;;;;;;;;;20.30;75.10;;;;;;5097303;27;35204;-58
2022/05/14 12:44:33;;;;;;;;;;;20.40;72.40;;;;;;5098552;27;36888;-58
2022/05/14 12:47:01;;;;;;;;;;;20.40;70.00;;;;;;5098285;27;36582;-58
2022/05/14 12:49:30;;;;;;;;;;;20.30;69.40;;;;;;5097097;27;40384;-58
2022/05/14 12:51:59;;;;;;;;;;;20.10;70.50;;;;;;5094114;27;35239;-58
2022/05/14 12:54:27;;;;;;;;;;;20.00;71.10;;;;;;5096038;27;37453;-58
2022/05/14 12:56:55;;;;;;;;;;;20.00;70.40;;;;;;5089844;27;39627;-61
2022/05/14 12:59:24;;;;;;;;;;;20.10;72.10;;;;;;5098515;27;40214;-63
2022/05/14 13:01:53;;;;;;;;;;;20.00;71.20;;;;;;5099314;27;36867;-63
2022/05/14 13:04:22;;;;;;;;;;;19.90;70.00;;;;;;5096577;27;36516;-58
2022/05/14 13:06:49;;;;;;;;;;;19.90;71.10;;;;;;5098827;27;37898;-60
2022/05/14 13:09:23;;;;;;;;;;;19.80;73.80;;;;;;5097294;27;38947;-56
2022/05/14 13:11:51;;;;;;;;;;;19.90;74.00;;;;;;5097768;27;36192;-57
2022/05/14 13:14:21;;;;;;;;;;;19.90;72.40;;;;;;5098702;27;37552;-64
2022/05/14 13:16:56;;;;;;;;;;;19.90;71.80;;;;;;5097022;27;37579;-64
2022/05/14 13:19:36;;;;;;;;;;;19.90;75.10;;;;;;5096459;27;36010;-63
2022/05/14 13:22:04;;;;;;;;;;;19.90;71.50;;;;;;5098715;27;37561;-64
2022/05/14 13:24:32;;;;;;;;;;;20.00;73.60;;;;;;5097415;27;37829;-63
2022/05/14 13:27:00;;;;;;;;;;;20.10;75.40;;;;;;5095697;27;39101;-64
2022/05/14 13:29:28;;;;;;;;;;;20.10;73.30;;;;;;5096342;27;37032;-63
2022/05/14 13:32:07;;;;;;;;;;;20.10;73.90;;;;;;5097976;27;35300;-64
2022/05/14 13:37:24;;;;;;;;;;;20.00;73.00;;;;;;5094462;27;38605;-63
2022/05/14 13:39:53;;;;;;;;;;;19.80;72.60;;;;;;5092848;27;38570;-63
2022/05/14 13:42:23;;;;;;;;;;;19.70;73.90;;;;;;5093965;27;36373;-63
2022/05/14 13:44:51;;;;;;;;;;;19.60;74.00;;;;;;5096065;27;39040;-63
2022/05/14 13:47:22;;;;;;;;;;;19.50;74.50;;;;;;5094380;27;37886;-65
2022/05/14 13:49:52;;;;;;;;;;;19.50;75.30;;;;;;5093629;27;36981;-59
2022/05/14 13:52:24;;;;;;;;;;;19.50;75.30;;;;;;5094426;27;37567;-59
2022/05/14 13:55:00;;;;;;;;;;;19.50;78.30;;;;;;5093998;27;39278;-59
2022/05/14 13:57:27;;;;;;;;;;;19.50;75.90;;;;;;5090095;27;38497;-57
2022/05/14 14:00:02;;;;;;;;;;;19.60;76.30;;;;;;5093888;27;37545;-57
2022/05/14 14:02:31;;;;;;;;;;;19.50;76.90;;;;;;5093487;27;36078;-61
2022/05/14 14:04:59;;;;;;;;;;;19.50;76.50;;;;;;5091832;27;37862;-61
2022/05/14 14:07:28;;;;;;;;;;;19.50;76.00;;;;;;5094354;27;38810;-61
2022/05/14 14:09:55;;;;;;;;;;;19.40;75.80;;;;;;5093861;27;37075;-61
2022/05/14 14:12:24;;;;;;;;;;;19.40;76.60;;;;;;5093819;27;37064;-61
2022/05/14 14:14:52;;;;;;;;;;;19.30;75.80;;;;;;5094114;27;38539;-61
2022/05/14 14:17:19;;;;;;;;;;;19.20;75.00;;;;;;5089247;27;36762;-61
2022/05/14 14:19:47;;;;;;;;;;;19.20;74.80;;;;;;5090245;27;37122;-61
2022/05/14 14:22:14;;;;;;;;;;;19.20;76.70;;;;;;5090929;27;36256;-61
2022/05/14 14:24:48;;;;;;;;;;;19.10;78.00;;;;;;5092381;27;36456;-62
2022/05/14 14:27:16;;;;;;;;;;;19.10;79.50;;;;;;5092242;27;37314;-61
2022/05/14 14:29:43;;;;;;;;;;;19.30;79.10;;;;;;5092555;27;36895;-61
2022/05/14 14:32:10;;;;;;;;;;;19.40;80.30;;;;;;5094138;27;35134;-61
2022/05/14 14:34:37;;;;;;;;;;;19.50;78.50;;;;;;5093210;27;38321;-61
2022/05/14 14:37:06;;;;;;;;;;;19.70;76.10;;;;;;5093502;27;39015;-61
2022/05/14 14:39:33;;;;;;;;;;;19.70;76.00;;;;;;5093200;27;38613;-61
2022/05/14 14:42:00;;;;;;;;;;;19.70;74.40;;;;;;5093168;27;36090;-61
2022/05/14 14:44:28;;;;;;;;;;;19.70;73.20;;;;;;5093579;27;38385;-61
2022/05/14 14:46:57;;;;;;;;;;;19.70;74.40;;;;;;5093718;27;38225;-61
2022/05/14 14:49:24;;;;;;;;;;;19.70;73.60;;;;;;5092933;27;37332;-61
2022/05/14 14:51:51;;;;;;;;;;;19.60;72.10;;;;;;5092886;27;35906;-61
2022/05/14 14:54:20;;;;;;;;;;;19.60;73.10;;;;;;5092970;27;39218;-61